KAVX/AVX METAR and TAF weather

Enter ICAO airport designator
Station Type Date Time Source
KAVX METAR 2019/12/05 22:57 UTC NOAA

KAVX 052257Z AUTO 32003KT 10SM SCT006 SCT014 13/11 A3010 RMK AO2 T01330111


Station Type Date Time Source
KAVX Decoded METAR 2019/12/05 22:57 UTC NOAA

AVALON CATALINA AIRPORT, CA, United States (KAVX) 33-24N 118-25W 482M
Dec 05, 2019 - 05:57 PM EST / 2019.12.05 2257 UTC
Wind: from the NW (320 degrees) at 3 MPH (3 KT):0
Visibility: 10 mile(s):0
Sky conditions: partly cloudy
Temperature: 55.9 F (13.3 C)
Dew Point: 52.0 F (11.1 C)
Relative Humidity: 86%
Pressure (altimeter): 30.1 in. Hg (1019 hPa)
ob: KAVX 052257Z AUTO 32003KT 10SM SCT006 SCT014 13/11 A3010 RMK AO2 T01330111
cycle: 23

Station Type Date Time Source
KAVX TAF UTC NOAA

Error!

Example: see airport list